UAL1182 KCMH-KORD
Flight info
| Callsign | UAL1182 |
|---|---|
| Flight time | N/A |
| Altitude | 30000 |
| Route | PKACZ TARRY FWA WATSN4 |
| Aircraft | A320/M-SDE3FGHIRWY/LB1 |
Departure
| Time | 2026-05-04 03:28 |
|---|---|
| Airport | John Glenn Columbus International Airport (KCMH) |
Arrival
| Time | N/A |
|---|---|
| Airport | Chicago O'Hare International Airport (KORD) |
| Time | Latitude | Longitude | Altitude | Speed | Heading |
|---|---|---|---|---|---|
| 2026-05-04 02:44 | 39.99675 | -82.88089 | 821 ft | 0 kts | 55° |
| 2026-05-04 03:16 | 39.99670 | -82.88098 | 821 ft | 4 kts | 55° |
| 2026-05-04 03:16 | 39.99655 | -82.88127 | 820 ft | 4 kts | 57° |
| 2026-05-04 03:16 | 39.99641 | -82.88157 | 815 ft | 4 kts | 59° |
| 2026-05-04 03:16 | 39.99627 | -82.88188 | 819 ft | 4 kts | 63° |
| 2026-05-04 03:17 | 39.99617 | -82.88219 | 819 ft | 4 kts | 76° |
| 2026-05-04 03:17 | 39.99614 | -82.88239 | 819 ft | 0 kts | 92° |
| 2026-05-04 03:20 | 39.99614 | -82.88236 | 819 ft | 2 kts | 92° |
| 2026-05-04 03:20 | 39.99612 | -82.88188 | 812 ft | 7 kts | 95° |
| 2026-05-04 03:20 | 39.99608 | -82.88123 | 820 ft | 8 kts | 95° |
| 2026-05-04 03:21 | 39.99602 | -82.88025 | 821 ft | 12 kts | 94° |
| 2026-05-04 03:21 | 39.99622 | -82.87926 | 823 ft | 12 kts | 36° |
| 2026-05-04 03:21 | 39.99710 | -82.87909 | 823 ft | 14 kts | 4° |
| 2026-05-04 03:21 | 39.99810 | -82.87898 | 823 ft | 15 kts | 5° |
| 2026-05-04 03:22 | 39.99909 | -82.87900 | 822 ft | 13 kts | 342° |
| 2026-05-04 03:22 | 39.99989 | -82.87948 | 820 ft | 14 kts | 352° |
| 2026-05-04 03:22 | 40.00066 | -82.87995 | 820 ft | 12 kts | 289° |
| 2026-05-04 03:22 | 40.00070 | -82.88108 | 822 ft | 12 kts | 276° |
| 2026-05-04 03:23 | 40.00081 | -82.88225 | 823 ft | 15 kts | 273° |
| 2026-05-04 03:23 | 40.00091 | -82.88387 | 822 ft | 19 kts | 274° |
| 2026-05-04 03:23 | 40.00100 | -82.88564 | 825 ft | 20 kts | 274° |
| 2026-05-04 03:23 | 40.00110 | -82.88750 | 824 ft | 22 kts | 274° |
| 2026-05-04 03:24 | 40.00123 | -82.88951 | 822 ft | 23 kts | 274° |
| 2026-05-04 03:24 | 40.00133 | -82.89169 | 821 ft | 25 kts | 274° |
| 2026-05-04 03:24 | 40.00145 | -82.89375 | 820 ft | 22 kts | 274° |
| 2026-05-04 03:24 | 40.00157 | -82.89581 | 820 ft | 22 kts | 274° |
| 2026-05-04 03:25 | 40.00165 | -82.89759 | 821 ft | 20 kts | 272° |
| 2026-05-04 03:25 | 40.00177 | -82.89916 | 824 ft | 17 kts | 273° |
| 2026-05-04 03:25 | 40.00185 | -82.90073 | 824 ft | 18 kts | 273° |
| 2026-05-04 03:25 | 40.00195 | -82.90230 | 827 ft | 16 kts | 275° |
| 2026-05-04 03:26 | 40.00204 | -82.90373 | 826 ft | 16 kts | 274° |
| 2026-05-04 03:26 | 40.00211 | -82.90531 | 827 ft | 19 kts | 275° |
| 2026-05-04 03:26 | 40.00225 | -82.90714 | 825 ft | 18 kts | 292° |
| 2026-05-04 03:26 | 40.00298 | -82.90740 | 825 ft | 10 kts | 45° |
| 2026-05-04 03:27 | 40.00314 | -82.90650 | 826 ft | 8 kts | 93° |
| 2026-05-04 03:27 | 40.00313 | -82.90634 | 826 ft | 9 kts | 93° |
| 2026-05-04 03:27 | 40.00290 | -82.90224 | 828 ft | 80 kts | 94° |
| 2026-05-04 03:27 | 40.00235 | -82.89239 | 819 ft | 135 kts | 94° |
| 2026-05-04 03:28 | 40.00163 | -82.87866 | 1017 ft | 158 kts | 96° |
| 2026-05-04 03:28 | 40.00165 | -82.86435 | 1661 ft | 158 kts | 77° |
| 2026-05-04 03:28 | 40.00569 | -82.85128 | 2145 ft | 162 kts | 66° |
| 2026-05-04 03:28 | 40.01133 | -82.83762 | 2321 ft | 185 kts | 63° |
| 2026-05-04 03:29 | 40.01785 | -82.82249 | 2480 ft | 208 kts | 63° |
| 2026-05-04 03:29 | 40.02712 | -82.80647 | 2625 ft | 236 kts | 36° |
| 2026-05-04 03:29 | 40.04279 | -82.79874 | 2913 ft | 251 kts | 355° |
| 2026-05-04 03:29 | 40.05929 | -82.80484 | 3334 ft | 255 kts | 317° |
| 2026-05-04 03:30 | 40.06980 | -82.82268 | 4124 ft | 247 kts | 288° |
| 2026-05-04 03:30 | 40.07655 | -82.84327 | 5119 ft | 247 kts | 291° |
| 2026-05-04 03:30 | 40.08416 | -82.86259 | 6060 ft | 248 kts | 295° |
| 2026-05-04 03:30 | 40.09244 | -82.88236 | 6981 ft | 249 kts | 296° |
| 2026-05-04 03:31 | 40.10087 | -82.90235 | 7821 ft | 253 kts | 296° |
| 2026-05-04 03:31 | 40.10935 | -82.92264 | 8627 ft | 257 kts | 296° |
| 2026-05-04 03:31 | 40.11788 | -82.94339 | 9423 ft | 262 kts | 296° |
| 2026-05-04 03:31 | 40.12641 | -82.96445 | 10154 ft | 267 kts | 296° |
| 2026-05-04 03:32 | 40.13539 | -82.98686 | 10418 ft | 290 kts | 296° |
| 2026-05-04 03:32 | 40.14489 | -83.01071 | 10726 ft | 304 kts | 296° |
| 2026-05-04 03:32 | 40.15480 | -83.03564 | 11244 ft | 309 kts | 296° |
| 2026-05-04 03:32 | 40.16472 | -83.06069 | 11893 ft | 312 kts | 296° |
| 2026-05-04 03:33 | 40.17474 | -83.08601 | 12607 ft | 314 kts | 296° |
| 2026-05-04 03:33 | 40.18481 | -83.11144 | 13325 ft | 317 kts | 296° |
| 2026-05-04 03:33 | 40.19499 | -83.13717 | 14021 ft | 319 kts | 296° |
| 2026-05-04 03:33 | 40.20484 | -83.16207 | 14626 ft | 322 kts | 296° |
| 2026-05-04 03:34 | 40.21505 | -83.18787 | 15246 ft | 325 kts | 296° |
| 2026-05-04 03:34 | 40.22546 | -83.21423 | 15865 ft | 327 kts | 296° |
| 2026-05-04 03:34 | 40.23597 | -83.24085 | 16476 ft | 330 kts | 297° |
| 2026-05-04 03:34 | 40.24656 | -83.26767 | 17087 ft | 333 kts | 297° |
| 2026-05-04 03:35 | 40.25725 | -83.29469 | 17703 ft | 336 kts | 297° |
| 2026-05-04 03:35 | 40.26803 | -83.32204 | 18305 ft | 339 kts | 297° |
| 2026-05-04 03:35 | 40.27883 | -83.34959 | 18862 ft | 341 kts | 297° |
| 2026-05-04 03:35 | 40.28972 | -83.37734 | 19443 ft | 343 kts | 297° |
| 2026-05-04 03:36 | 40.30066 | -83.40529 | 20040 ft | 345 kts | 297° |
| 2026-05-04 03:36 | 40.31167 | -83.43338 | 20632 ft | 347 kts | 297° |
| 2026-05-04 03:36 | 40.32273 | -83.46166 | 21202 ft | 349 kts | 297° |
| 2026-05-04 03:36 | 40.33386 | -83.49010 | 21759 ft | 351 kts | 297° |
| 2026-05-04 03:37 | 40.34492 | -83.51834 | 22299 ft | 353 kts | 297° |
| 2026-05-04 03:37 | 40.35616 | -83.54713 | 22861 ft | 356 kts | 297° |
| 2026-05-04 03:37 | 40.36745 | -83.57609 | 23411 ft | 358 kts | 297° |
| 2026-05-04 03:37 | 40.37882 | -83.60524 | 23885 ft | 360 kts | 297° |
| 2026-05-04 03:38 | 40.39026 | -83.63460 | 24335 ft | 362 kts | 296° |
| 2026-05-04 03:38 | 40.40174 | -83.66413 | 24770 ft | 364 kts | 297° |
| 2026-05-04 03:38 | 40.41326 | -83.69377 | 25211 ft | 366 kts | 296° |
| 2026-05-04 03:38 | 40.42483 | -83.72357 | 25641 ft | 367 kts | 296° |
| 2026-05-04 03:39 | 40.43647 | -83.75357 | 26069 ft | 369 kts | 296° |
| 2026-05-04 03:39 | 40.44815 | -83.78366 | 26496 ft | 371 kts | 296° |
| 2026-05-04 03:39 | 40.45990 | -83.81395 | 26904 ft | 373 kts | 296° |
| 2026-05-04 03:39 | 40.47166 | -83.84433 | 27308 ft | 374 kts | 296° |
| 2026-05-04 03:40 | 40.48346 | -83.87493 | 27703 ft | 376 kts | 296° |
| 2026-05-04 03:40 | 40.49512 | -83.90519 | 28088 ft | 378 kts | 296° |
| 2026-05-04 03:40 | 40.50687 | -83.93573 | 28465 ft | 379 kts | 296° |
| 2026-05-04 03:40 | 40.51882 | -83.96682 | 28853 ft | 381 kts | 296° |
| 2026-05-04 03:41 | 40.53078 | -83.99795 | 29194 ft | 383 kts | 296° |
| 2026-05-04 03:41 | 40.54280 | -84.02927 | 29561 ft | 385 kts | 296° |
| 2026-05-04 03:41 | 40.55486 | -84.06075 | 29900 ft | 387 kts | 296° |
| 2026-05-04 03:41 | 40.56686 | -84.09208 | 29960 ft | 376 kts | 296° |
| 2026-05-04 03:42 | 40.57848 | -84.12236 | 29965 ft | 366 kts | 296° |
| 2026-05-04 03:42 | 40.60149 | -84.18173 | 29965 ft | 369 kts | 297° |
| 2026-05-04 03:43 | 40.62517 | -84.24155 | 29966 ft | 363 kts | 296° |
| 2026-05-04 03:43 | 40.64759 | -84.30095 | 29964 ft | 362 kts | 296° |
| 2026-05-04 03:44 | 40.66969 | -84.35997 | 29964 ft | 362 kts | 296° |
| 2026-05-04 03:44 | 40.69210 | -84.41937 | 29960 ft | 362 kts | 296° |
| 2026-05-04 03:45 | 40.71460 | -84.47876 | 29942 ft | 362 kts | 296° |
| 2026-05-04 03:45 | 40.73710 | -84.53832 | 29942 ft | 363 kts | 296° |
| 2026-05-04 03:46 | 40.75957 | -84.59802 | 29944 ft | 363 kts | 296° |
| 2026-05-04 03:46 | 40.78186 | -84.65741 | 29944 ft | 364 kts | 296° |
| 2026-05-04 03:47 | 40.80430 | -84.71735 | 29942 ft | 364 kts | 296° |
| 2026-05-04 03:47 | 40.82676 | -84.77733 | 29945 ft | 365 kts | 296° |
| 2026-05-04 03:48 | 40.84926 | -84.83755 | 29945 ft | 365 kts | 296° |
| 2026-05-04 03:48 | 40.87168 | -84.89781 | 29944 ft | 366 kts | 296° |
| 2026-05-04 03:49 | 40.89401 | -84.95782 | 29940 ft | 366 kts | 296° |
| 2026-05-04 03:49 | 40.91661 | -85.01873 | 29939 ft | 367 kts | 297° |
| 2026-05-04 03:50 | 40.93892 | -85.07904 | 29939 ft | 368 kts | 297° |
| 2026-05-04 03:50 | 40.96134 | -85.13986 | 29936 ft | 368 kts | 297° |
| 2026-05-04 03:51 | 40.98679 | -85.19860 | 29935 ft | 368 kts | 309° |
| 2026-05-04 03:51 | 41.02127 | -85.24890 | 29934 ft | 369 kts | 312° |
| 2026-05-04 03:52 | 41.05027 | -85.29098 | 29934 ft | 370 kts | 312° |
| 2026-05-04 03:52 | 41.08498 | -85.34142 | 29927 ft | 370 kts | 312° |
| 2026-05-04 03:53 | 41.11957 | -85.39161 | 29917 ft | 371 kts | 312° |
| 2026-05-04 03:53 | 41.15442 | -85.44235 | 29916 ft | 372 kts | 312° |
| 2026-05-04 03:54 | 41.18302 | -85.49930 | 29912 ft | 374 kts | 294° |
| 2026-05-04 03:54 | 41.19944 | -85.56515 | 29896 ft | 376 kts | 290° |
| 2026-05-04 03:55 | 41.21536 | -85.63132 | 29890 ft | 377 kts | 290° |
| 2026-05-04 03:55 | 41.23129 | -85.69743 | 29890 ft | 378 kts | 290° |
| 2026-05-04 03:56 | 41.24716 | -85.76407 | 29885 ft | 378 kts | 290° |
| 2026-05-04 03:56 | 41.26305 | -85.83075 | 29892 ft | 379 kts | 290° |
| 2026-05-04 03:57 | 41.27254 | -85.89994 | 29900 ft | 383 kts | 279° |
| 2026-05-04 03:57 | 41.27818 | -85.97041 | 29899 ft | 383 kts | 279° |
| 2026-05-04 03:58 | 41.28739 | -86.07605 | 29897 ft | 383 kts | 282° |
| 2026-05-04 03:58 | 41.29586 | -86.14591 | 29893 ft | 382 kts | 283° |
| 2026-05-04 03:59 | 41.30463 | -86.21568 | 29895 ft | 382 kts | 283° |
| 2026-05-04 03:59 | 41.31292 | -86.28457 | 29892 ft | 382 kts | 282° |
| 2026-05-04 04:00 | 41.32105 | -86.35462 | 29881 ft | 382 kts | 282° |
| 2026-05-04 04:00 | 41.32903 | -86.42414 | 29570 ft | 374 kts | 282° |
| 2026-05-04 04:01 | 41.33286 | -86.45803 | 29279 ft | 367 kts | 282° |
| 2026-05-04 04:01 | 41.33664 | -86.49151 | 28990 ft | 364 kts | 282° |
| 2026-05-04 04:01 | 41.34068 | -86.52462 | 28721 ft | 360 kts | 286° |
| 2026-05-04 04:01 | 41.34806 | -86.55606 | 28435 ft | 354 kts | 295° |
| 2026-05-04 04:02 | 41.35891 | -86.58536 | 28158 ft | 352 kts | 299° |
| 2026-05-04 04:02 | 41.37011 | -86.61427 | 27883 ft | 350 kts | 299° |
| 2026-05-04 04:02 | 41.38117 | -86.64307 | 27618 ft | 348 kts | 298° |
| 2026-05-04 04:02 | 41.39360 | -86.67037 | 27366 ft | 344 kts | 308° |
| 2026-05-04 04:03 | 41.40978 | -86.69364 | 27023 ft | 340 kts | 319° |
| 2026-05-04 04:03 | 41.42875 | -86.71143 | 26654 ft | 338 kts | 330° |
| 2026-05-04 04:03 | 41.44982 | -86.72524 | 26268 ft | 336 kts | 332° |
| 2026-05-04 04:03 | 41.47082 | -86.73882 | 25888 ft | 334 kts | 332° |
| 2026-05-04 04:04 | 41.49165 | -86.75241 | 25496 ft | 332 kts | 332° |
| 2026-05-04 04:04 | 41.51234 | -86.76600 | 25108 ft | 330 kts | 332° |
| 2026-05-04 04:04 | 41.53354 | -86.77773 | 24712 ft | 330 kts | 341° |
| 2026-05-04 04:04 | 41.55613 | -86.78357 | 24293 ft | 333 kts | 352° |
| 2026-05-04 04:05 | 41.57921 | -86.78579 | 23889 ft | 332 kts | 352° |
| 2026-05-04 04:05 | 41.60217 | -86.78797 | 23480 ft | 331 kts | 352° |
| 2026-05-04 04:05 | 41.62518 | -86.79017 | 23018 ft | 330 kts | 352° |
| 2026-05-04 04:05 | 41.64797 | -86.79240 | 22585 ft | 327 kts | 352° |
| 2026-05-04 04:06 | 41.67065 | -86.79476 | 22171 ft | 324 kts | 351° |
| 2026-05-04 04:06 | 41.69299 | -86.79751 | 21765 ft | 322 kts | 351° |
| 2026-05-04 04:06 | 41.71527 | -86.80047 | 21363 ft | 320 kts | 350° |
| 2026-05-04 04:06 | 41.73734 | -86.80344 | 20954 ft | 318 kts | 350° |
| 2026-05-04 04:07 | 41.75902 | -86.80634 | 20556 ft | 317 kts | 350° |
| 2026-05-04 04:07 | 41.78048 | -86.81165 | 20154 ft | 312 kts | 336° |
| 2026-05-04 04:07 | 41.80015 | -86.82372 | 19755 ft | 310 kts | 332° |
| 2026-05-04 04:07 | 41.81956 | -86.83637 | 19361 ft | 309 kts | 331° |
| 2026-05-04 04:08 | 41.83885 | -86.84897 | 18970 ft | 308 kts | 331° |
| 2026-05-04 04:08 | 41.85806 | -86.86157 | 18580 ft | 307 kts | 331° |
| 2026-05-04 04:08 | 41.87718 | -86.87410 | 18202 ft | 305 kts | 331° |
| 2026-05-04 04:08 | 41.89628 | -86.88660 | 17781 ft | 304 kts | 331° |
| 2026-05-04 04:09 | 41.91521 | -86.89924 | 17126 ft | 307 kts | 327° |
| 2026-05-04 04:09 | 41.93210 | -86.91740 | 16337 ft | 313 kts | 311° |
| 2026-05-04 04:09 | 41.94426 | -86.94161 | 15807 ft | 313 kts | 295° |
| 2026-05-04 04:09 | 41.95057 | -86.96917 | 15327 ft | 314 kts | 281° |
| 2026-05-04 04:10 | 41.95379 | -86.99820 | 14860 ft | 313 kts | 280° |
| 2026-05-04 04:10 | 41.95699 | -87.02707 | 14414 ft | 311 kts | 280° |
| 2026-05-04 04:10 | 41.96016 | -87.05581 | 13973 ft | 310 kts | 280° |
| 2026-05-04 04:10 | 41.96331 | -87.08435 | 13536 ft | 308 kts | 280° |